Latest Weather Observations for Cummins Airport

IDS60801

Issued at 11:51 pm CST Sunday 15 September 2019 (issued every 10 minutes, with the page automatically refreshed every 10 minutes)

About weather observations | Map of weather stations | Latest weather observations for SA | Other Formats
Station Details ID: 018217 Name: CUMMINS AERO Lat: -34.25 Lon: 135.71 Height: 60.11 m
Data from the previous 72 hours. | See also: Recent months at Cummins Airport
Date/Time
CST
Temp
°C
App
Temp
°C
Dew
Point
°C
Rel
Hum
%
Delta-T
°C
Wind Press
QNH
hPa
Press
MSL
hPa
Rain since
9am
mm
Dir  Spd
km/h
Gust
km/h
Spd
kts
Gust
kts
15/11:30pm 12.9 9.5 11.3 90 0.8 SSE 20 28 11 15 1020.0 1020.0 0.0
15/11:00pm 13.6 11.2 12.5 93 0.6 S 17 24 9 13 1020.3 1020.3 0.0
15/10:30pm 13.6 11.2 12.8 95 0.4 S 17 26 9 14 1020.1 1020.1 0.0
15/10:00pm 13.9 10.0 13.4 97 0.3 S 26 37 14 20 1019.9 1019.9 0.0
15/09:30pm 14.0 10.7 14.0 100 0.0 SSE 24 32 13 17 1019.2 1019.2 0.0
15/09:00pm 14.3 10.4 14.3 100 0.0 S 28 39 15 21 1019.4 1019.4 0.0
15/08:30pm 14.6 10.0 14.6 100 0.0 S 32 39 17 21 1019.0 1019.0 0.0
15/08:00pm 14.9 11.9 14.9 100 0.0 S 24 35 13 19 1018.2 1018.2 0.0
15/07:30pm 15.0 12.1 15.0 100 0.0 S 24 33 13 18 1017.5 1017.5 0.0
15/07:00pm 15.5 11.9 13.2 86 1.3 S 24 35 13 19 1017.7 1017.7 0.0
15/06:30pm 16.9 13.0 12.2 74 2.6 S 24 30 13 16 1017.6 1017.6 0.0
15/06:00pm 17.8 15.5 12.9 73 2.7 S 17 24 9 13 1017.3 1017.3 0.0
15/05:30pm 18.6 16.6 12.8 69 3.3 SSW 15 19 8 10 1017.4 1017.4 0.0
15/05:00pm 19.5 15.5 11.8 61 4.3 SSW 24 33 13 18 1016.8 1016.8 0.0
15/04:30pm 20.5 16.3 11.2 55 5.1 SSW 24 32 13 17 1016.6 1016.6 0.0
15/04:00pm 22.1 18.4 9.3 44 6.9 WSW 19 24 10 13 1015.8 1015.8 0.0
15/03:30pm 23.1 17.7 8.0 38 8.0 WSW 26 39 14 21 1015.9 1015.9 0.0
15/03:00pm 26.7 22.3 9.1 33 9.7 WNW 22 28 12 15 1015.6 1015.6 0.0
15/02:30pm 26.6 22.2 9.0 33 9.6 WNW 22 32 12 17 1015.5 1015.5 0.0
15/02:00pm 27.7 22.2 7.5 28 10.8 WNW 26 33 14 18 1015.7 1015.7 0.0
15/01:30pm 28.2 23.2 8.0 28 11.0 NW 24 37 13 20 1015.8 1015.8 0.0
15/01:00pm 27.9 24.1 9.2 31 10.3 NW 19 28 10 15 1016.2 1016.2 0.0
15/12:30pm 26.4 22.7 7.9 31 9.9 NNW 17 22 9 12 1016.8 1016.8 0.0
15/12:00pm 24.6 21.6 9.3 38 8.3 NW 15 22 8 12 1017.4 1017.4 0.0
15/11:30am 23.0 20.2 10.1 44 7.1 NW 15 22 8 12 1017.9 1017.9 0.0
15/11:00am 24.2 20.7 8.6 37 8.4 NNW 17 30 9 16 1017.6 1017.6 0.0
15/10:30am 22.8 20.0 9.9 44 7.0 NNW 15 24 8 13 1017.9 1017.9 0.0
15/10:00am 22.3 20.6 12.3 53 5.7 NNE 13 20 7 11 1018.2 1018.2 0.0
15/09:30am 21.1 20.0 13.0 60 4.6 NNE 11 17 6 9 1018.6 1018.6 0.0
15/09:00am 18.2 19.4 13.7 75 2.6 CALM 0 4 0 2 1019.5 1019.5 0.0
15/08:30am 14.8 15.6 12.5 86 1.3 CALM 0 0 0 0 1019.9 1019.9 0.0
15/08:00am 14.0 13.1 10.6 80 1.8 E 6 9 3 5 1019.7 1019.7 0.0
15/07:30am 13.2 11.4 9.6 79 1.8 SE 9 11 5 6 1019.4 1019.4 0.0
15/07:00am 12.1 9.6 8.4 78 1.8 S 11 17 6 9 1018.7 1018.7 0.0
15/06:30am 11.7 8.6 7.2 74 2.2 NE 13 15 7 8 1017.9 1017.9 0.0
15/06:00am 13.2 10.8 7.0 66 3.0 ENE 9 11 5 6 1017.9 1017.9 0.0
15/05:30am 13.2 10.6 7.6 69 2.7 NE 11 13 6 7 1017.4 1017.4 0.0
15/05:00am 13.0 10.8 9.4 79 1.8 NE 11 13 6 7 1017.3 1017.3 0.0
15/04:30am 13.7 10.7 9.2 74 2.3 NNE 15 17 8 9 1017.4 1017.4 0.0
15/04:00am 15.5 12.5 9.2 66 3.2 NNE 15 19 8 10 1017.2 1017.2 0.0
15/03:30am 13.7 11.7 10.1 79 1.9 NNE 11 17 6 9 1018.4 1018.4 0.0
15/03:00am 14.6 12.8 9.6 72 2.6 N 9 13 5 7 1018.7 1018.7 0.0
15/02:30am 13.8 10.9 9.8 77 2.1 NNE 15 17 8 9 1017.9 1017.9 0.0
15/02:00am 13.3 11.6 9.7 79 1.8 NE 9 11 5 6 1018.2 1018.2 0.0
15/01:30am 13.9 11.8 9.9 77 2.1 NNE 11 13 6 7 1018.5 1018.5 0.0
15/01:00am 13.7 10.7 10.5 81 1.7 NNE 17 20 9 11 1018.5 1018.5 0.0
15/12:30am 14.2 12.2 10.2 77 2.1 NNE 11 13 6 7 1019.1 1019.1 0.0
15/12:00am 15.8 13.7 11.2 74 2.5 NE 13 17 7 9 1019.3 1019.3 0.0
 
Date/Time
CST
Temp
°C
App
Temp
°C
Dew
Point
°C
Rel
Hum
%
Delta-T
°C
Wind Press
QNH
hPa
Press
MSL
hPa
Rain since
9am
mm
Dir  Spd
km/h
Gust
km/h
Spd
kts
Gust
kts
14/11:30pm 15.9 13.8 11.3 74 2.5 NE 13 15 7 8 1019.9 1019.9 0.0
14/11:00pm 14.9 14.2 11.9 82 1.6 NE 7 11 4 6 1020.1 1020.1 0.0
14/10:30pm 15.7 14.8 11.5 76 2.3 NE 7 11 4 6 1020.5 1020.5 0.0
14/10:00pm 15.7 12.9 11.5 76 2.3 NE 17 20 9 11 1020.4 1020.4 0.0
14/09:30pm 15.3 13.1 12.2 82 1.7 NNE 15 17 8 9 1020.7 1020.7 0.0
14/09:00pm 14.7 12.9 12.2 85 1.4 NE 13 15 7 8 1021.1 1021.1 0.0
14/08:30pm 14.9 13.5 12.2 84 1.5 NNE 11 13 6 7 1021.1 1021.1 0.0
14/08:00pm 15.7 14.8 12.6 82 1.7 NE 9 11 5 6 1021.0 1021.0 0.0
14/07:30pm 16.5 16.8 13.4 82 1.7 ENE 4 7 2 4 1021.1 1021.1 0.0
14/07:00pm 16.6 15.7 13.7 83 1.6 NE 11 13 6 7 1021.1 1021.1 0.0
14/06:30pm 17.8 18.1 14.5 81 1.9 ENE 6 11 3 6 1021.0 1021.0 0.0
14/06:00pm 19.7 19.9 14.7 73 2.9 NW 7 9 4 5 1020.9 1020.9 0.0
14/05:30pm 20.4 19.7 13.1 63 4.2 NNW 9 17 5 9 1021.0 1021.0 0.0
14/05:00pm 21.3 19.7 12.7 58 4.9 ESE 13 17 7 9 1021.0 1021.0 0.0
14/04:30pm 22.4 21.6 12.9 55 5.4 SSW 9 11 5 6 1021.6 1021.6 0.0
14/04:00pm 23.1 21.8 13.6 55 5.5 SSW 13 17 7 9 1022.0 1022.0 0.0
14/03:30pm 24.5 20.8 10.0 40 8.0 SW 20 28 11 15 1022.1 1022.1 0.0
14/03:00pm 26.6 21.0 8.6 32 9.8 WSW 28 39 15 21 1022.1 1022.1 0.0
14/02:30pm 28.0 26.2 12.0 37 9.2 WNW 13 20 7 11 1021.6 1021.6 0.0
14/02:00pm 29.4 25.8 8.5 27 11.5 NW 17 22 9 12 1021.4 1021.4 0.0
14/01:30pm 28.4 25.5 11.0 34 9.9 NNW 17 26 9 14 1021.9 1021.9 0.0
14/01:00pm 28.2 25.0 8.5 29 10.8 NNW 15 20 8 11 1022.4 1022.4 0.0
14/12:30pm 27.0 24.9 11.1 37 9.0 N 13 20 7 11 1022.6 1022.6 0.0
14/12:00pm 25.7 22.8 12.2 43 7.7 NNW 19 24 10 13 1023.2 1023.2 0.0
14/11:30am 25.1 22.6 10.9 41 7.9 N 15 22 8 12 1023.6 1023.6 0.0
14/11:00am 23.3 20.4 12.3 50 6.3 N 19 26 10 14 1023.8 1023.8 0.0
14/10:30am 21.8 20.0 13.2 58 4.9 NNE 15 22 8 12 1024.3 1024.3 0.0
14/10:00am 19.9 17.4 12.4 62 4.2 NNE 17 20 9 11 1024.7 1024.8 0.0
14/09:30am 19.0 18.1 13.8 72 3.0 NNE 11 17 6 9 1025.2 1025.3 0.0
14/09:00am 17.3 17.3 14.2 82 1.8 NNE 7 11 4 6 1025.1 1025.2 0.0
14/08:30am 15.6 14.2 13.3 86 1.3 NE 13 19 7 10 1024.7 1024.8 0.0
14/08:00am 13.9 12.7 13.9 100 0.0 NE 13 17 7 9 1024.6 1024.7 0.0
14/07:30am 12.3 10.9 12.3 100 0.0 NE 11 15 6 8 1024.7 1024.8 0.0
14/07:00am 10.3 8.7 10.3 100 0.0 NE 9 13 5 7 1024.6 1024.7 0.0
14/06:30am 8.2 6.1 8.2 100 0.0 N 9 11 5 6 1024.9 1025.0 0.0
14/06:00am 7.5 5.2 7.5 100 0.0 ENE 9 13 5 7 1025.0 1025.1 0.0
14/05:30am 8.0 6.8 8.0 100 0.0 NE 4 9 2 5 1024.7 1024.8 0.0
14/05:00am 7.1 5.7 7.1 100 0.0 NNE 4 7 2 4 1024.7 1024.8 0.0
14/04:30am 7.9 7.0 7.9 100 0.0 NE 2 6 1 3 1024.8 1024.9 0.0
14/04:00am 8.5 6.5 8.5 100 0.0 NE 9 11 5 6 1024.9 1025.0 0.0
14/03:30am 6.8 6.1 6.8 100 0.0 CALM 0 0 0 0 1025.3 1025.4 0.0
14/03:00am 6.6 5.8 6.6 100 0.0 CALM 0 4 0 2 1025.9 1026.0 0.0
14/02:30am 7.4 6.8 7.4 100 0.0 CALM 0 0 0 0 1026.3 1026.4 0.0
14/02:00am 6.8 6.1 6.8 100 0.0 CALM 0 0 0 0 1026.5 1026.6 0.0
14/01:30am 7.1 6.4 7.1 100 0.0 CALM 0 0 0 0 1026.8 1026.9 0.0
14/01:00am 7.1 6.0 7.1 100 0.0 ESE 2 6 1 3 1027.1 1027.2 0.0
14/12:30am 7.5 6.9 7.5 100 0.0 CALM 0 0 0 0 1027.4 1027.5 0.0
14/12:00am 7.6 7.0 7.6 100 0.0 CALM 0 0 0 0 1027.5 1027.6 0.0
 
Date/Time
CST
Temp
°C
App
Temp
°C
Dew
Point
°C
Rel
Hum
%
Delta-T
°C
Wind Press
QNH
hPa
Press
MSL
hPa
Rain since
9am
mm
Dir  Spd
km/h
Gust
km/h
Spd
kts
Gust
kts
13/11:30pm 8.0 6.4 8.0 100 0.0 WSW 6 7 3 4 1027.8 1027.9 0.0
13/11:00pm 8.7 8.4 8.7 100 0.0 CALM 0 0 0 0 1027.8 1027.9 0.0
13/10:30pm 9.8 9.8 9.8 100 0.0 CALM 0 0 0 0 1028.0 1028.1 0.0
13/10:00pm 9.4 7.6 9.4 100 0.0 NNE 9 11 5 6 1028.0 1028.1 0.0
13/09:30pm 9.8 8.1 9.8 100 0.0 NNE 9 11 5 6 1027.9 1028.0 0.0
13/09:00pm 10.7 9.8 10.7 100 0.0 ENE 6 7 3 4 1027.9 1028.0 0.0
13/08:30pm 11.6 10.4 11.6 100 0.0 E 9 11 5 6 1027.7 1027.8 0.0
13/08:00pm 12.1 10.2 11.9 99 0.1 E 13 17 7 9 1027.7 1027.8 0.0
13/07:30pm 12.1 10.5 11.5 96 0.3 E 11 13 6 7 1027.5 1027.6 0.0
13/07:00pm 13.4 11.4 11.6 89 1.0 ESE 13 17 7 9 1027.2 1027.3 0.0
13/06:30pm 15.0 12.5 11.2 78 2.0 ESE 15 19 8 10 1026.9 1027.0 0.0
13/06:00pm 16.7 13.9 11.4 71 2.9 SE 17 22 9 12 1026.8 1026.9 0.0
13/05:30pm 18.1 16.4 12.5 70 3.1 S 13 20 7 11 1026.7 1026.8 0.0
13/05:00pm 18.9 16.0 12.4 66 3.6 S 19 26 10 14 1026.7 1026.8 0.0
13/04:30pm 19.3 15.9 12.6 65 3.7 S 22 32 12 17 1026.6 1026.7 0.0
13/04:00pm 19.4 14.7 13.3 68 3.5 SSW 30 37 16 20 1026.6 1026.7 0.0
13/03:43pm 20.6 16.5 13.8 65 3.9 SSW 28 46 15 25 1026.5 1026.6 0.0
13/03:30pm 22.8 19.8 12.1 51 6.0 SSW 19 26 10 14 1026.4 1026.5 0.0
13/03:00pm 22.6 21.4 12.8 54 5.6 SSW 11 17 6 9 1026.3 1026.4 0.0
13/02:30pm 22.1 21.3 12.9 56 5.2 SSW 9 17 5 9 1026.4 1026.5 0.0
13/02:00pm 21.8 20.5 12.6 56 5.2 SW 11 15 6 8 1026.6 1026.7 0.0
13/01:30pm 21.4 21.6 12.0 55 5.3 ENE 2 11 1 6 1026.6 1026.7 0.0
13/01:00pm 21.1 21.0 13.3 61 4.5 N 6 9 3 5 1026.7 1026.8 0.0
13/12:30pm 19.3 18.8 12.6 65 3.7 NE 7 11 4 6 1026.9 1027.0 0.0
13/12:00pm 18.4 19.3 12.8 70 3.1 CALM 0 9 0 5 1027.3 1027.4 0.0
13/11:30am 16.7 17.7 14.3 86 1.4 SSW 2 7 1 4 1027.9 1028.0 0.0
13/11:00am 15.1 16.4 15.1 100 0.0 WNW 2 9 1 5 1028.2 1028.2 0.0
13/10:30am 13.7 13.7 13.7 100 0.0 SSE 6 11 3 6 1028.5 1028.5 0.0
13/10:00am 12.1 11.0 12.1 100 0.0 SSW 9 13 5 7 1028.5 1028.5 0.0
13/09:30am 11.3 10.4 11.3 100 0.0 SW 7 11 4 6 1028.7 1028.7 0.0
13/09:00am 10.7 10.2 10.7 100 0.0 SW 4 11 2 6 1028.4 1028.4 0.2
13/08:30am 9.7 9.7 9.7 100 0.0 CALM 0 0 0 0 1027.6 1027.7 0.2
13/08:00am 8.8 8.5 8.8 100 0.0 CALM 0 0 0 0 1027.7 1027.8 0.2
13/07:30am 8.6 7.1 8.6 100 0.0 ENE 6 9 3 5 1027.2 1027.3 0.2
13/07:00am 8.2 7.4 8.2 100 0.0 S 2 7 1 4 1027.2 1027.3 0.2
13/06:30am 7.9 7.4 7.9 100 0.0 CALM 0 0 0 0 1026.9 1027.0 0.2
13/06:00am 7.7 7.2 7.7 100 0.0 CALM 0 0 0 0 1026.6 1026.7 0.2
13/05:30am 7.2 5.8 7.2 100 0.0 SW 4 6 2 3 1026.4 1026.5 0.0
13/05:00am 6.6 4.7 6.6 100 0.0 SSW 6 11 3 6 1026.0 1026.1 0.0
13/04:30am 6.4 5.6 6.4 100 0.0 CALM 0 0 0 0 1025.5 1025.6 0.0
13/04:00am 6.1 4.4 6.1 100 0.0 WSW 4 9 2 5 1025.4 1025.5 0.0
13/03:30am 7.0 6.3 7.0 100 0.0 CALM 0 0 0 0 1025.3 1025.4 0.0
13/03:00am 7.6 7.0 7.6 100 0.0 CALM 0 0 0 0 1025.6 1025.7 0.0
13/02:30am 8.1 7.7 8.1 100 0.0 CALM 0 0 0 0 1025.9 1026.0 0.0
13/02:00am 8.3 7.5 8.3 100 0.0 ENE 2 7 1 4 1026.0 1026.1 0.0
13/01:30am 8.4 8.0 8.4 100 0.0 CALM 0 6 0 3 1026.3 1026.4 0.0
13/01:00am 8.6 7.0 8.6 100 0.0 S 7 9 4 5 1026.5 1026.6 0.0
13/12:30am 8.9 6.6 8.9 100 0.0 S 11 13 6 7 1026.4 1026.5 0.0
13/12:00am 8.0 6.2 8.0 100 0.0 SSE 7 9 4 5 1026.6 1026.7 0.0

Other formats

Comma delimited format used in spreadsheet applications
http://www.bom.gov.au/fwo/IDS60801/IDS60801.95663.axf

JavaScript Object Notation format (JSON) in row-major order
http://www.bom.gov.au/fwo/IDS60801/IDS60801.95663.json

Data quality

Most of these data are generated automatically and are frequently updated. Quality checks on data are not normally performed. It is possible for incorrect values to appear. Refer to information at About Latest Weather Observations and please check the disclaimer before using these data.